createdAt,value
2023-02-09T00:02:24.587Z,11.73
2023-02-09T00:04:52.927Z,13.07
2023-02-09T00:07:22.473Z,12.43
2023-02-09T00:09:52.528Z,12.50
2023-02-09T00:12:38.077Z,12.13
2023-02-09T00:15:09.820Z,11.87
2023-02-09T00:17:38.474Z,12.23
2023-02-09T00:20:08.660Z,12.57
2023-02-09T00:22:38.281Z,12.27
2023-02-09T00:25:07.050Z,12.23
2023-02-09T00:27:36.029Z,12.80
2023-02-09T00:30:04.384Z,12.40
2023-02-09T00:32:33.461Z,13.13
2023-02-09T00:35:01.629Z,11.77
2023-02-09T00:37:29.683Z,13.40
2023-02-09T00:39:59.335Z,12.30
2023-02-09T00:42:27.644Z,12.00
2023-02-09T00:44:55.646Z,12.43
2023-02-09T00:47:23.644Z,12.03
2023-02-09T00:49:51.815Z,12.90
2023-02-09T00:52:19.976Z,11.47
2023-02-09T00:54:48.108Z,13.30
2023-02-09T00:57:17.550Z,12.47
2023-02-09T00:59:45.639Z,12.07
2023-02-09T01:02:13.814Z,12.83
2023-02-09T01:04:41.923Z,12.03
2023-02-09T01:07:10.237Z,13.10
2023-02-09T01:09:38.217Z,13.13
2023-02-09T01:12:06.842Z,13.67
2023-02-09T01:14:36.342Z,14.83
2023-02-09T01:17:04.619Z,13.33
2023-02-09T01:19:33.596Z,13.97
2023-02-09T01:22:01.827Z,14.57
2023-02-09T01:24:29.805Z,14.90
2023-02-09T01:26:57.888Z,14.17
2023-02-09T01:29:25.984Z,14.27
2023-02-09T01:31:55.463Z,15.07
2023-02-09T01:34:23.616Z,14.37
2023-02-09T01:37:02.266Z,15.90
2023-02-09T01:39:33.850Z,15.60
2023-02-09T01:42:01.970Z,14.50
2023-02-09T01:45:09.699Z,15.20
2023-02-09T01:47:44.956Z,16.17
2023-02-09T01:50:14.495Z,16.83
2023-02-09T01:52:43.895Z,16.50
2023-02-09T01:55:15.831Z,17.93
2023-02-09T01:57:47.988Z,16.90
2023-02-09T02:00:18.644Z,16.63
2023-02-09T02:02:52.245Z,17.47
2023-02-09T02:05:21.995Z,17.60
2023-02-09T02:07:56.772Z,18.47
2023-02-09T02:10:25.485Z,18.80
2023-02-09T02:12:55.714Z,19.43
2023-02-09T02:15:28.946Z,18.17
2023-02-09T02:18:20.167Z,18.10
2023-02-09T02:21:17.766Z,17.93
2023-02-09T02:23:53.725Z,18.07
2023-02-09T02:26:59.872Z,18.07
2023-02-09T02:30:03.794Z,20.13
2023-02-09T02:33:01.433Z,19.97
2023-02-09T02:35:38.561Z,19.43
2023-02-09T02:38:16.571Z,19.63
2023-02-09T02:40:55.830Z,19.57
2023-02-09T02:43:34.756Z,19.40
2023-02-09T02:46:09.859Z,19.30
2023-02-09T02:48:44.650Z,20.23
2023-02-09T02:51:18.142Z,20.67
2023-02-09T02:53:55.725Z,20.17
2023-02-09T02:56:28.111Z,19.37
2023-02-09T02:58:59.617Z,20.13
2023-02-09T03:01:34.303Z,19.33
2023-02-09T03:04:06.941Z,19.00
2023-02-09T03:06:36.381Z,19.87
2023-02-09T03:09:07.229Z,20.30
2023-02-09T03:11:38.983Z,19.73
2023-02-09T03:14:16.239Z,21.17
2023-02-09T03:20:34.115Z,19.67
2023-02-09T03:23:05.520Z,20.93
2023-02-09T03:25:38.579Z,20.70
2023-02-09T03:28:09.896Z,20.53
2023-02-09T03:30:42.087Z,20.63
2023-02-09T03:33:21.081Z,21.27
2023-02-09T03:35:54.560Z,21.07
2023-02-09T03:38:23.047Z,19.90
2023-02-09T03:40:51.037Z,20.53
2023-02-09T03:43:19.005Z,20.07
2023-02-09T03:45:47.352Z,20.30
2023-02-09T03:48:15.756Z,20.43
2023-02-09T03:50:44.186Z,21.40
2023-02-09T03:53:14.422Z,21.20
2023-02-09T03:55:43.553Z,20.67
2023-02-09T03:58:11.506Z,21.67
2023-02-09T04:00:39.758Z,21.10
2023-02-09T04:03:07.751Z,21.03
2023-02-09T04:05:35.989Z,21.70
2023-02-09T04:08:03.961Z,20.50
2023-02-09T04:10:33.391Z,20.77
2023-02-09T04:13:01.562Z,21.67
2023-02-09T04:15:29.799Z,21.73
2023-02-09T04:17:57.915Z,20.67
2023-02-09T04:20:25.908Z,21.37
2023-02-09T04:22:54.489Z,21.30
2023-02-09T04:25:22.944Z,21.93
2023-02-09T04:27:52.572Z,23.43
2023-02-09T04:30:21.211Z,23.07
2023-02-09T04:32:50.200Z,24.13
2023-02-09T04:35:18.406Z,24.40
2023-02-09T04:37:46.781Z,24.53
2023-02-09T04:40:15.285Z,21.77
2023-02-09T04:42:46.593Z,22.27
2023-02-09T04:45:16.235Z,22.07
2023-02-09T04:47:44.299Z,21.63
2023-02-09T04:50:12.730Z,21.53
2023-02-09T04:52:40.889Z,22.13
2023-02-09T04:55:09.767Z,22.27
2023-02-09T04:57:55.442Z,23.00
2023-02-09T05:00:25.540Z,22.77
2023-02-09T05:02:54.141Z,23.03
2023-02-09T05:05:22.619Z,23.17
2023-02-09T05:07:50.856Z,23.07
2023-02-09T05:10:18.956Z,23.13
2023-02-09T05:12:47.837Z,23.73
2023-02-09T05:15:17.086Z,23.57
2023-02-09T05:17:46.593Z,22.90
2023-02-09T05:20:14.928Z,24.47
2023-02-09T05:22:43.157Z,23.33
2023-02-09T05:25:11.658Z,23.00
2023-02-09T05:27:40.330Z,23.23
2023-02-09T05:30:09.257Z,24.20
2023-02-09T05:32:40.247Z,24.17
2023-02-09T05:35:10.169Z,22.63
2023-02-09T05:37:38.674Z,24.07
2023-02-09T05:40:08.324Z,23.27
2023-02-09T05:42:37.052Z,23.27
2023-02-09T05:45:05.631Z,22.87
2023-02-09T05:47:33.929Z,23.23
2023-02-09T05:50:01.987Z,23.33
2023-02-09T05:52:31.476Z,23.57
2023-02-09T05:54:59.579Z,24.17
2023-02-09T05:57:27.944Z,23.07
2023-02-09T05:59:56.320Z,23.07
2023-02-09T06:02:24.487Z,22.80
2023-02-09T06:04:52.609Z,24.90
2023-02-09T06:07:20.745Z,23.83
2023-02-09T06:09:52.313Z,22.10
2023-02-09T06:12:20.450Z,24.10
2023-02-09T06:14:48.872Z,24.20
2023-02-09T06:17:16.859Z,23.13
2023-02-09T06:19:45.337Z,23.33
2023-02-09T06:22:13.429Z,22.93
2023-02-09T06:24:41.728Z,24.03
2023-02-09T06:27:12.751Z,26.73
2023-02-09T06:29:41.566Z,24.93
2023-02-09T06:32:09.614Z,24.77
2023-02-09T06:34:38.085Z,24.37
2023-02-09T06:37:06.292Z,24.57
2023-02-09T06:39:34.354Z,24.00
2023-02-09T06:42:02.919Z,24.00
2023-02-09T06:44:32.364Z,24.33
2023-02-09T06:47:00.602Z,24.47
2023-02-09T06:49:28.585Z,24.37
2023-02-09T06:51:57.004Z,24.70
2023-02-09T06:54:25.773Z,24.60
2023-02-09T06:56:54.225Z,26.20
2023-02-09T06:59:22.396Z,24.73
2023-02-09T07:01:54.844Z,24.60
2023-02-09T07:04:24.020Z,24.47
2023-02-09T07:06:52.097Z,23.70
2023-02-09T07:09:20.709Z,24.47
2023-02-09T07:11:49.044Z,25.20
2023-02-09T07:14:17.510Z,24.47
2023-02-09T07:16:45.877Z,25.63
2023-02-09T07:19:15.326Z,25.63
2023-02-09T07:21:43.433Z,25.80
2023-02-09T07:24:11.792Z,25.63
2023-02-09T07:26:39.791Z,25.73
2023-02-09T07:29:08.060Z,25.93
2023-02-09T07:31:36.210Z,24.80
2023-02-09T07:34:04.479Z,25.83
2023-02-09T07:36:34.126Z,26.67
2023-02-09T07:39:02.341Z,25.57
2023-02-09T07:41:30.496Z,26.67
2023-02-09T07:43:58.739Z,25.13
2023-02-09T07:46:27.024Z,26.17
2023-02-09T07:48:59.472Z,26.33
2023-02-09T07:51:29.623Z,26.30
2023-02-09T07:54:01.406Z,25.10
2023-02-09T07:56:30.467Z,25.63
2023-02-09T07:59:01.289Z,25.33
2023-02-09T08:01:30.274Z,28.17
2023-02-09T08:03:58.909Z,27.23
2023-02-09T08:06:41.571Z,31.67
2023-02-09T08:09:13.634Z,28.37
2023-02-09T08:11:45.998Z,27.43
2023-02-09T08:14:17.424Z,25.00
2023-02-09T08:16:46.130Z,24.40
2023-02-09T08:19:16.663Z,23.10
2023-02-09T08:21:47.078Z,24.33
2023-02-09T08:24:18.352Z,22.53
2023-02-09T08:26:46.675Z,24.73
2023-02-09T08:29:15.116Z,25.07
2023-02-09T08:31:43.484Z,27.30
2023-02-09T08:34:11.664Z,23.87
2023-02-09T08:36:41.478Z,24.43
2023-02-09T08:39:11.096Z,21.90
2023-02-09T08:41:40.780Z,21.63
2023-02-09T08:44:08.806Z,21.50
2023-02-09T08:46:37.708Z,21.17
2023-02-09T08:49:05.877Z,20.27
2023-02-09T08:51:34.067Z,20.83
2023-02-09T08:54:02.083Z,20.07
2023-02-09T08:56:30.095Z,19.60
2023-02-09T08:59:02.668Z,21.27
2023-02-09T09:01:30.739Z,19.53
2023-02-09T09:03:58.947Z,20.43
2023-02-09T09:06:27.759Z,21.63
2023-02-09T09:08:56.121Z,21.20
2023-02-09T09:11:24.207Z,20.10
2023-02-09T09:13:53.337Z,21.27
2023-02-09T09:16:23.912Z,19.60
2023-02-09T09:18:52.649Z,21.30
2023-02-09T09:21:20.972Z,19.47
2023-02-09T09:23:49.540Z,20.20
2023-02-09T09:26:18.811Z,20.60
2023-02-09T09:28:50.124Z,20.27
2023-02-09T09:31:21.424Z,20.83
2023-02-09T09:33:50.821Z,19.13
2023-02-09T09:36:20.615Z,19.33
2023-02-09T09:38:50.394Z,19.80
2023-02-09T09:41:21.906Z,18.83
2023-02-09T09:43:51.032Z,18.27
2023-02-09T09:46:22.161Z,18.43
2023-02-09T09:48:54.075Z,18.63
2023-02-09T09:51:32.077Z,19.77
2023-02-09T09:54:02.524Z,20.43
2023-02-09T09:56:32.550Z,19.90
2023-02-09T09:59:03.227Z,19.27
2023-02-09T10:01:33.991Z,18.93
2023-02-09T10:04:10.414Z,19.17
2023-02-09T10:06:42.760Z,18.67
2023-02-09T10:09:24.869Z,18.97
2023-02-09T10:11:59.646Z,19.17
2023-02-09T10:14:27.918Z,19.00
2023-02-09T10:17:03.675Z,20.07
2023-02-09T10:19:34.271Z,19.40
2023-02-09T10:22:03.399Z,20.73
2023-02-09T10:24:33.681Z,20.67
2023-02-09T10:27:14.220Z,20.07
2023-02-09T10:29:42.600Z,19.47
2023-02-09T10:32:18.503Z,19.73
2023-02-09T10:34:50.494Z,20.07
2023-02-09T10:37:25.112Z,18.03
2023-02-09T10:40:03.368Z,19.70
2023-02-09T10:42:34.000Z,19.83
2023-02-09T10:45:09.162Z,20.40
2023-02-09T10:47:37.637Z,20.03
2023-02-09T10:50:21.765Z,21.30
2023-02-09T10:53:01.434Z,21.43
2023-02-09T10:55:36.448Z,20.53
2023-02-09T10:58:23.698Z,20.43
2023-02-09T11:00:58.942Z,20.30
2023-02-09T11:03:27.255Z,20.30
2023-02-09T11:06:12.529Z,20.37
2023-02-09T11:08:46.981Z,20.10
2023-02-09T11:11:25.935Z,21.10
2023-02-09T11:13:54.301Z,19.77
2023-02-09T11:16:56.893Z,20.87
2023-02-09T11:19:51.858Z,21.63
2023-02-09T11:22:31.728Z,20.27
2023-02-09T11:25:14.465Z,20.97
2023-02-09T11:27:59.015Z,20.00
2023-02-09T11:30:46.295Z,20.70
2023-02-09T11:33:23.384Z,20.57
2023-02-09T11:36:00.969Z,19.53
2023-02-09T11:38:37.408Z,19.53
2023-02-09T11:41:27.649Z,19.70
2023-02-09T11:44:02.354Z,19.30
2023-02-09T11:46:34.921Z,18.73
2023-02-09T11:49:08.716Z,19.50
2023-02-09T11:51:41.349Z,19.13
2023-02-09T11:54:18.655Z,19.77
2023-02-09T11:56:50.924Z,18.83
2023-02-09T11:59:27.874Z,18.73
2023-02-09T12:02:02.920Z,19.37
2023-02-09T12:04:40.867Z,19.97
2023-02-09T12:07:17.446Z,19.13
2023-02-09T12:09:52.795Z,20.30
2023-02-09T12:12:27.812Z,18.27
2023-02-09T12:15:05.839Z,19.97
2023-02-09T12:17:45.807Z,19.30
2023-02-09T12:20:49.863Z,19.73
2023-02-09T12:23:20.987Z,19.40
2023-02-09T12:25:59.765Z,18.80
2023-02-09T12:28:45.685Z,19.67
2023-02-09T12:31:26.262Z,19.47
2023-02-09T12:34:15.911Z,19.13
2023-02-09T12:37:29.422Z,18.53
2023-02-09T12:40:30.402Z,18.57
2023-02-09T12:43:26.533Z,19.73
2023-02-09T12:46:20.324Z,19.50
2023-02-09T12:49:07.638Z,18.00
2023-02-09T12:52:15.065Z,18.37
2023-02-09T12:54:47.092Z,19.27
2023-02-09T12:57:54.347Z,18.43
2023-02-09T13:00:56.462Z,20.93
2023-02-09T13:03:27.447Z,18.50
2023-02-09T13:05:59.765Z,20.13
2023-02-09T13:08:49.657Z,19.70
2023-02-09T13:11:27.543Z,18.70
2023-02-09T13:13:59.302Z,19.60
2023-02-09T13:17:10.481Z,19.23
2023-02-09T13:20:15.420Z,19.67
2023-02-09T13:22:59.637Z,18.40
2023-02-09T13:28:23.161Z,19.33
2023-02-09T13:30:53.124Z,18.53
2023-02-09T13:33:30.833Z,19.77
2023-02-09T13:36:22.960Z,19.93
2023-02-09T13:38:54.511Z,18.50
2023-02-09T13:41:28.332Z,18.77
2023-02-09T13:43:57.089Z,18.63
2023-02-09T13:46:31.781Z,18.77
2023-02-09T13:49:14.672Z,19.50
2023-02-09T13:51:43.156Z,18.80
2023-02-09T13:54:20.690Z,17.73
2023-02-09T13:56:49.070Z,18.87
2023-02-09T13:59:18.015Z,18.40
2023-02-09T14:01:49.378Z,18.23
2023-02-09T14:04:23.030Z,19.17
2023-02-09T14:06:58.381Z,18.73
2023-02-09T14:09:32.134Z,19.07
2023-02-09T14:12:09.645Z,19.53
2023-02-09T14:15:01.412Z,18.03
2023-02-09T14:17:31.473Z,18.53
2023-02-09T14:20:00.971Z,17.43
2023-02-09T14:22:31.672Z,19.10
2023-02-09T14:25:01.279Z,18.53
2023-02-09T14:27:33.261Z,18.37
2023-02-09T14:30:02.033Z,18.93
2023-02-09T14:32:37.490Z,18.67
2023-02-09T14:35:19.499Z,18.83
2023-02-09T14:37:49.289Z,19.30
2023-02-09T14:40:26.346Z,17.97
2023-02-09T14:43:02.847Z,19.47
2023-02-09T14:45:39.351Z,18.80
2023-02-09T14:48:21.490Z,19.03
2023-02-09T14:50:50.847Z,18.30
2023-02-09T14:53:19.774Z,17.70
2023-02-09T14:55:49.916Z,18.43
2023-02-09T14:58:21.336Z,17.90
2023-02-09T15:00:49.718Z,17.80
2023-02-09T15:03:17.910Z,17.70
2023-02-09T15:05:48.933Z,18.00
2023-02-09T15:08:23.422Z,18.77
2023-02-09T15:10:55.080Z,18.07
2023-02-09T15:13:23.380Z,19.20
2023-02-09T15:15:51.756Z,18.70
2023-02-09T15:18:21.529Z,17.53
2023-02-09T15:20:50.170Z,20.30
2023-02-09T15:23:19.436Z,18.23
2023-02-09T15:25:47.886Z,20.47
2023-02-09T15:28:24.643Z,19.30
2023-02-09T15:30:52.788Z,20.13
2023-02-09T15:33:21.852Z,21.07
2023-02-09T15:35:50.311Z,20.40
2023-02-09T15:38:19.434Z,20.57
2023-02-09T15:41:09.296Z,20.97
2023-02-09T15:43:55.915Z,20.10
2023-02-09T15:46:41.368Z,20.03
2023-02-09T15:49:09.398Z,19.93
2023-02-09T15:51:40.089Z,19.50
2023-02-09T15:54:13.516Z,20.60
2023-02-09T15:56:41.953Z,19.23
2023-02-09T15:59:18.955Z,21.07
2023-02-09T16:01:47.272Z,20.03
2023-02-09T16:04:15.706Z,20.30
2023-02-09T16:06:47.322Z,19.53
2023-02-09T16:09:20.248Z,21.33
2023-02-09T16:11:48.608Z,19.77
2023-02-09T16:14:21.958Z,19.67
2023-02-09T16:16:50.443Z,20.33
2023-02-09T16:19:19.109Z,19.87
2023-02-09T16:21:50.492Z,20.20
2023-02-09T16:24:25.750Z,20.70
2023-02-09T16:26:54.032Z,20.53
2023-02-09T16:29:25.852Z,20.83
2023-02-09T16:31:54.630Z,20.57
2023-02-09T16:34:22.695Z,20.37
2023-02-09T16:36:51.216Z,20.07
2023-02-09T16:39:21.236Z,20.13
2023-02-09T16:41:50.971Z,22.10
2023-02-09T16:44:22.399Z,20.47
2023-02-09T16:46:53.874Z,21.60
2023-02-09T16:49:33.170Z,20.23
2023-02-09T16:52:05.356Z,20.07
2023-02-09T16:54:40.558Z,21.30
2023-02-09T16:57:10.638Z,21.33
2023-02-09T16:59:38.836Z,22.07
2023-02-09T17:02:43.054Z,21.60
2023-02-09T17:05:18.978Z,22.33
2023-02-09T17:07:54.381Z,21.53
2023-02-09T17:10:26.506Z,22.07
2023-02-09T17:12:54.527Z,22.13
2023-02-09T17:15:30.807Z,22.60
2023-02-09T17:18:04.687Z,22.20
2023-02-09T17:20:37.777Z,24.03
2023-02-09T17:23:06.470Z,24.83
2023-02-09T17:25:35.013Z,23.30
2023-02-09T17:28:03.153Z,23.27
2023-02-09T17:30:34.098Z,23.90
2023-02-09T17:33:05.896Z,22.23
2023-02-09T17:36:03.640Z,22.90
2023-02-09T17:38:26.956Z,22.43
2023-02-09T17:40:57.796Z,23.80
2023-02-09T17:43:26.678Z,25.13
2023-02-09T17:45:55.130Z,24.03
2023-02-09T17:48:25.716Z,25.97
2023-02-09T17:51:00.490Z,26.87
2023-02-09T17:53:33.271Z,25.10
2023-02-09T17:56:02.622Z,24.93
2023-02-09T17:58:31.065Z,25.33
2023-02-09T18:00:59.321Z,26.40
2023-02-09T18:03:29.566Z,26.00
2023-02-09T18:06:01.928Z,24.40
2023-02-09T18:08:31.092Z,25.27
2023-02-09T18:10:59.244Z,23.60
2023-02-09T18:13:27.719Z,24.20
2023-02-09T18:15:55.825Z,25.63
2023-02-09T18:18:24.581Z,24.60
2023-02-09T18:20:54.279Z,24.97
2023-02-09T18:23:23.482Z,25.43
2023-02-09T18:25:51.835Z,25.03
2023-02-09T18:28:20.169Z,23.93
2023-02-09T18:30:48.381Z,25.93
2023-02-09T18:33:20.089Z,25.20
2023-02-09T18:35:48.754Z,25.37
2023-02-09T18:38:18.471Z,24.60
2023-02-09T18:40:46.768Z,28.67
2023-02-09T18:43:16.020Z,35.17
2023-02-09T18:45:44.542Z,32.67
2023-02-09T18:48:13.004Z,29.83
2023-02-09T18:50:41.305Z,29.20
2023-02-09T18:53:09.438Z,28.63
2023-02-09T18:55:38.826Z,30.00
2023-02-09T18:58:09.846Z,30.87
2023-02-09T19:00:38.131Z,28.87
2023-02-09T19:03:06.432Z,30.07
2023-02-09T19:05:35.500Z,31.53
2023-02-09T19:08:03.554Z,30.73
2023-02-09T19:10:33.249Z,30.63
2023-02-09T19:13:03.257Z,29.80
2023-02-09T19:15:31.918Z,30.77
2023-02-09T19:18:00.406Z,34.00
2023-02-09T19:20:30.855Z,34.67
2023-02-09T19:22:59.385Z,33.67
2023-02-09T19:25:31.327Z,30.60
2023-02-09T19:28:00.032Z,32.07
2023-02-09T19:30:29.776Z,31.87
2023-02-09T19:32:58.816Z,30.50
2023-02-09T19:35:29.266Z,29.70
2023-02-09T19:37:58.900Z,30.90
2023-02-09T19:40:36.315Z,31.30
2023-02-09T19:43:06.069Z,30.93
2023-02-09T19:45:39.414Z,32.13
2023-02-09T19:48:11.092Z,33.17
2023-02-09T19:50:39.587Z,32.03
2023-02-09T19:53:08.035Z,29.97
2023-02-09T19:55:36.425Z,29.30
2023-02-09T19:58:04.525Z,29.20
2023-02-09T20:00:34.201Z,31.60
2023-02-09T20:03:04.778Z,30.30
2023-02-09T20:05:32.970Z,29.67
2023-02-09T20:08:01.141Z,29.23
2023-02-09T20:10:29.086Z,34.27
2023-02-09T20:12:57.152Z,29.90
2023-02-09T20:15:25.440Z,28.47
2023-02-09T20:17:53.528Z,28.97
2023-02-09T20:20:23.379Z,28.63
2023-02-09T20:22:52.258Z,29.80
2023-02-09T20:25:20.256Z,29.10
2023-02-09T20:27:51.029Z,30.17
2023-02-09T20:30:19.412Z,28.67
2023-02-09T20:32:47.730Z,29.37
2023-02-09T20:35:15.985Z,30.50
2023-02-09T20:37:45.527Z,29.77
2023-02-09T20:40:14.654Z,29.17
2023-02-09T20:43:00.530Z,29.60
2023-02-09T20:45:46.193Z,28.30
2023-02-09T20:48:15.040Z,30.23
2023-02-09T20:50:45.241Z,29.63
2023-02-09T20:53:15.002Z,28.10
2023-02-09T20:55:44.875Z,29.17
2023-02-09T20:58:14.033Z,29.33
2023-02-09T21:00:42.490Z,28.07
2023-02-09T21:03:10.552Z,28.20
2023-02-09T21:05:38.825Z,29.87
2023-02-09T21:08:09.030Z,30.70
2023-02-09T21:10:40.186Z,29.63
2023-02-09T21:13:18.660Z,31.87
2023-02-09T21:15:55.138Z,31.67
2023-02-09T21:18:25.022Z,30.97
2023-02-09T21:21:01.023Z,32.63
2023-02-09T21:23:29.040Z,33.20
2023-02-09T21:26:05.079Z,30.23
2023-02-09T21:28:33.833Z,32.03
2023-02-09T21:31:09.892Z,31.27
2023-02-09T21:33:38.166Z,33.00
2023-02-09T21:36:08.142Z,34.00
2023-02-09T21:38:41.433Z,31.67
2023-02-09T21:41:33.256Z,32.07
2023-02-09T21:44:01.638Z,31.83
2023-02-09T21:46:30.087Z,31.67
2023-02-09T21:48:58.537Z,31.00
2023-02-09T21:51:26.723Z,31.60
2023-02-09T21:53:55.806Z,30.77
2023-02-09T21:56:28.845Z,30.50
2023-02-09T21:58:57.140Z,32.83
2023-02-09T22:01:25.578Z,33.13
2023-02-09T22:03:57.266Z,32.13
2023-02-09T22:06:25.725Z,30.77
2023-02-09T22:08:54.292Z,31.93
2023-02-09T22:11:22.628Z,29.67
2023-02-09T22:13:52.017Z,31.27
2023-02-09T22:16:24.065Z,31.00
2023-02-09T22:18:52.448Z,33.53
2023-02-09T22:21:22.017Z,30.13
2023-02-09T22:23:50.342Z,30.47
2023-02-09T22:26:18.676Z,31.77
2023-02-09T22:28:47.164Z,30.27
2023-02-09T22:31:18.838Z,30.63
2023-02-09T22:33:47.088Z,30.47
2023-02-09T22:36:17.947Z,32.77
2023-02-09T22:38:47.786Z,31.53
2023-02-09T22:41:22.205Z,32.43
2023-02-09T22:43:52.142Z,30.93
2023-02-09T22:46:22.825Z,32.13
2023-02-09T22:48:56.010Z,33.53
2023-02-09T22:51:25.372Z,32.03
2023-02-09T22:53:53.895Z,32.70
2023-02-09T22:56:22.853Z,32.20
2023-02-09T22:58:51.320Z,32.53
2023-02-09T23:01:19.859Z,33.53
2023-02-09T23:03:50.001Z,33.73
2023-02-09T23:06:20.812Z,32.70
2023-02-09T23:08:49.092Z,33.13
2023-02-09T23:11:18.949Z,32.57
2023-02-09T23:13:48.075Z,31.80
2023-02-09T23:16:19.051Z,32.50
2023-02-09T23:18:50.806Z,32.97
2023-02-09T23:21:20.485Z,33.07
2023-02-09T23:23:48.975Z,32.80
2023-02-09T23:26:19.277Z,31.90
2023-02-09T23:28:48.270Z,32.70
2023-02-09T23:31:18.020Z,32.27
2023-02-09T23:33:46.455Z,31.33
2023-02-09T23:36:17.803Z,33.10
2023-02-09T23:38:46.891Z,34.20
2023-02-09T23:41:17.047Z,31.50
2023-02-09T23:43:45.494Z,32.03
2023-02-09T23:46:15.536Z,32.20
2023-02-09T23:48:44.523Z,32.67
2023-02-09T23:51:18.380Z,33.43
2023-02-09T23:53:46.615Z,32.83
2023-02-09T23:56:16.529Z,33.00
2023-02-09T23:58:46.662Z,31.90
